Terminal Aerodrome Forecast
Issued by NWS

Home | Current Version | Previous Version | Text Only | Print | Product List | Glossary On
Versions: 1 2 3 4 5 6 7 8 9 10 11 12 13 14 15 16 17 18 19 20 21 22 23 24 25
000
FTUS44 KOHX 301300 AAA
TAFCKV
TAF AMD
KCKV 301341Z 3014/3112 17004KT P6SM FEW060 BKN100
     FM301400 18007KT P6SM -RA OVC050
     FM302000 20008KT 4SM TSRA BR OVC025CB
     FM310000 18006KT 3SM TSRA OVC015CB
     FM310600 17004KT 2SM +SHRA BR VCTS OVC007CB=

USA.gov is the U.S. government's official web portal to all federal, state and local government web resources and services.